sensor_id;sensor_type;location;lat;lon;timestamp;P1;durP1;ratioP1;P2;durP2;ratioP2
49758;SDS011;70329;45.524;10.194;2023-07-02T00:01:28;19.63;;;11.37;;
49758;SDS011;70329;45.524;10.194;2023-07-02T00:03:54;15.23;;;10.90;;
49758;SDS011;70329;45.524;10.194;2023-07-02T00:08:44;19.73;;;11.60;;
49758;SDS011;70329;45.524;10.194;2023-07-02T00:11:10;18.07;;;11.50;;
49758;SDS011;70329;45.524;10.194;2023-07-02T00:13:37;16.90;;;10.45;;
49758;SDS011;70329;45.524;10.194;2023-07-02T00:16:04;18.15;;;10.80;;
49758;SDS011;70329;45.524;10.194;2023-07-02T00:18:29;15.73;;;10.85;;
49758;SDS011;70329;45.524;10.194;2023-07-02T00:20:59;15.80;;;11.43;;
49758;SDS011;70329;45.524;10.194;2023-07-02T00:23:26;15.35;;;10.80;;
49758;SDS011;70329;45.524;10.194;2023-07-02T00:25:51;16.73;;;11.63;;
49758;SDS011;70329;45.524;10.194;2023-07-02T00:30:42;16.58;;;11.27;;
49758;SDS011;70329;45.524;10.194;2023-07-02T00:33:08;17.25;;;10.25;;
49758;SDS011;70329;45.524;10.194;2023-07-02T00:35:33;17.58;;;11.93;;
49758;SDS011;70329;45.524;10.194;2023-07-02T00:37:59;16.30;;;11.38;;
49758;SDS011;70329;45.524;10.194;2023-07-02T00:42:51;17.65;;;11.65;;
49758;SDS011;70329;45.524;10.194;2023-07-02T00:45:17;18.42;;;11.93;;
49758;SDS011;70329;45.524;10.194;2023-07-02T00:47:42;16.25;;;10.57;;
49758;SDS011;70329;45.524;10.194;2023-07-02T00:50:07;18.30;;;12.02;;
49758;SDS011;70329;45.524;10.194;2023-07-02T00:52:34;20.75;;;10.57;;
49758;SDS011;70329;45.524;10.194;2023-07-02T00:54:59;15.87;;;10.47;;
49758;SDS011;70329;45.524;10.194;2023-07-02T00:57:25;17.10;;;11.48;;
49758;SDS011;70329;45.524;10.194;2023-07-02T00:59:54;15.63;;;10.57;;
49758;SDS011;70329;45.524;10.194;2023-07-02T01:02:20;18.20;;;10.88;;
49758;SDS011;70329;45.524;10.194;2023-07-02T01:04:47;19.60;;;13.83;;
49758;SDS011;70329;45.524;10.194;2023-07-02T01:07:14;19.05;;;13.18;;
49758;SDS011;70329;45.524;10.194;2023-07-02T01:09:40;20.08;;;12.68;;
49758;SDS011;70329;45.524;10.194;2023-07-02T01:12:06;23.40;;;15.80;;
49758;SDS011;70329;45.524;10.194;2023-07-02T01:14:36;21.02;;;15.43;;
49758;SDS011;70329;45.524;10.194;2023-07-02T01:17:04;30.33;;;19.52;;
49758;SDS011;70329;45.524;10.194;2023-07-02T01:22:11;39.85;;;24.88;;
49758;SDS011;70329;45.524;10.194;2023-07-02T01:24:40;42.25;;;27.23;;
49758;SDS011;70329;45.524;10.194;2023-07-02T01:27:06;46.53;;;30.02;;
49758;SDS011;70329;45.524;10.194;2023-07-02T01:29:32;45.28;;;31.17;;
49758;SDS011;70329;45.524;10.194;2023-07-02T01:32:01;45.30;;;30.05;;
49758;SDS011;70329;45.524;10.194;2023-07-02T01:34:27;41.95;;;28.05;;
49758;SDS011;70329;45.524;10.194;2023-07-02T01:36:52;48.33;;;30.67;;
49758;SDS011;70329;45.524;10.194;2023-07-02T01:39:18;42.47;;;28.23;;
49758;SDS011;70329;45.524;10.194;2023-07-02T01:44:08;41.23;;;27.70;;
49758;SDS011;70329;45.524;10.194;2023-07-02T01:46:34;44.25;;;28.38;;
49758;SDS011;70329;45.524;10.194;2023-07-02T01:48:59;40.70;;;26.60;;
49758;SDS011;70329;45.524;10.194;2023-07-02T01:51:25;42.93;;;28.97;;
49758;SDS011;70329;45.524;10.194;2023-07-02T01:53:50;46.40;;;29.90;;
49758;SDS011;70329;45.524;10.194;2023-07-02T01:56:15;45.38;;;30.13;;
49758;SDS011;70329;45.524;10.194;2023-07-02T01:58:41;44.92;;;28.90;;
49758;SDS011;70329;45.524;10.194;2023-07-02T02:01:06;43.00;;;28.17;;
49758;SDS011;70329;45.524;10.194;2023-07-02T02:03:31;43.30;;;29.37;;
49758;SDS011;70329;45.524;10.194;2023-07-02T02:05:57;48.37;;;31.07;;
49758;SDS011;70329;45.524;10.194;2023-07-02T02:08:22;43.23;;;29.50;;
49758;SDS011;70329;45.524;10.194;2023-07-02T02:10:47;42.43;;;28.70;;
49758;SDS011;70329;45.524;10.194;2023-07-02T02:13:13;41.43;;;27.87;;
49758;SDS011;70329;45.524;10.194;2023-07-02T02:15:38;46.08;;;31.67;;
49758;SDS011;70329;45.524;10.194;2023-07-02T02:18:04;39.78;;;27.73;;
49758;SDS011;70329;45.524;10.194;2023-07-02T02:20:30;44.45;;;29.70;;
49758;SDS011;70329;45.524;10.194;2023-07-02T02:25:21;58.27;;;35.30;;
49758;SDS011;70329;45.524;10.194;2023-07-02T02:27:46;45.33;;;31.17;;
49758;SDS011;70329;45.524;10.194;2023-07-02T02:30:11;46.30;;;30.73;;
49758;SDS011;70329;45.524;10.194;2023-07-02T02:32:37;46.33;;;31.63;;
49758;SDS011;70329;45.524;10.194;2023-07-02T02:35:02;48.10;;;33.45;;
49758;SDS011;70329;45.524;10.194;2023-07-02T02:37:28;40.67;;;24.98;;
49758;SDS011;70329;45.524;10.194;2023-07-02T02:39:55;30.70;;;19.95;;
49758;SDS011;70329;45.524;10.194;2023-07-02T02:42:22;24.77;;;17.05;;
49758;SDS011;70329;45.524;10.194;2023-07-02T02:44:47;21.70;;;14.55;;
49758;SDS011;70329;45.524;10.194;2023-07-02T02:47:13;22.48;;;14.63;;
49758;SDS011;70329;45.524;10.194;2023-07-02T02:49:38;21.23;;;14.35;;
49758;SDS011;70329;45.524;10.194;2023-07-02T02:52:04;21.05;;;13.77;;
49758;SDS011;70329;45.524;10.194;2023-07-02T02:54:30;23.25;;;13.65;;
49758;SDS011;70329;45.524;10.194;2023-07-02T02:56:55;20.67;;;14.10;;
49758;SDS011;70329;45.524;10.194;2023-07-02T02:59:21;21.25;;;13.35;;
49758;SDS011;70329;45.524;10.194;2023-07-02T03:01:46;18.70;;;11.77;;
49758;SDS011;70329;45.524;10.194;2023-07-02T03:04:12;20.42;;;14.05;;
49758;SDS011;70329;45.524;10.194;2023-07-02T03:06:37;19.60;;;13.73;;
49758;SDS011;70329;45.524;10.194;2023-07-02T03:09:02;19.10;;;13.55;;
49758;SDS011;70329;45.524;10.194;2023-07-02T03:11:28;24.20;;;13.33;;
49758;SDS011;70329;45.524;10.194;2023-07-02T03:13:53;26.60;;;15.07;;
49758;SDS011;70329;45.524;10.194;2023-07-02T03:16:18;25.60;;;15.10;;
49758;SDS011;70329;45.524;10.194;2023-07-02T03:18:46;18.88;;;13.30;;
49758;SDS011;70329;45.524;10.194;2023-07-02T03:21:11;20.63;;;14.10;;
49758;SDS011;70329;45.524;10.194;2023-07-02T03:23:37;25.77;;;16.90;;
49758;SDS011;70329;45.524;10.194;2023-07-02T03:26:02;21.58;;;14.18;;
49758;SDS011;70329;45.524;10.194;2023-07-02T03:28:28;21.63;;;14.27;;
49758;SDS011;70329;45.524;10.194;2023-07-02T03:30:53;18.15;;;12.73;;
49758;SDS011;70329;45.524;10.194;2023-07-02T03:33:18;19.90;;;13.93;;
49758;SDS011;70329;45.524;10.194;2023-07-02T03:35:44;18.77;;;13.07;;
49758;SDS011;70329;45.524;10.194;2023-07-02T03:38:09;21.07;;;13.50;;
49758;SDS011;70329;45.524;10.194;2023-07-02T03:40:34;18.90;;;13.70;;
49758;SDS011;70329;45.524;10.194;2023-07-02T03:43:00;18.60;;;13.30;;
49758;SDS011;70329;45.524;10.194;2023-07-02T03:45:25;20.70;;;13.70;;
49758;SDS011;70329;45.524;10.194;2023-07-02T03:47:50;22.43;;;13.73;;
49758;SDS011;70329;45.524;10.194;2023-07-02T03:50:16;20.63;;;13.05;;
49758;SDS011;70329;45.524;10.194;2023-07-02T03:52:41;17.60;;;13.10;;
49758;SDS011;70329;45.524;10.194;2023-07-02T03:55:07;19.27;;;12.60;;
49758;SDS011;70329;45.524;10.194;2023-07-02T03:57:32;24.70;;;13.95;;
49758;SDS011;70329;45.524;10.194;2023-07-02T03:59:58;31.60;;;14.93;;
49758;SDS011;70329;45.524;10.194;2023-07-02T04:02:23;18.33;;;13.48;;
49758;SDS011;70329;45.524;10.194;2023-07-02T04:04:49;24.93;;;14.20;;
49758;SDS011;70329;45.524;10.194;2023-07-02T04:07:14;21.15;;;14.80;;
49758;SDS011;70329;45.524;10.194;2023-07-02T04:09:40;21.60;;;14.10;;
49758;SDS011;70329;45.524;10.194;2023-07-02T04:12:06;23.80;;;13.80;;
49758;SDS011;70329;45.524;10.194;2023-07-02T04:14:32;20.40;;;13.70;;
49758;SDS011;70329;45.524;10.194;2023-07-02T04:16:57;21.70;;;14.67;;
49758;SDS011;70329;45.524;10.194;2023-07-02T04:19:23;21.63;;;15.27;;
49758;SDS011;70329;45.524;10.194;2023-07-02T04:21:48;25.63;;;16.23;;
49758;SDS011;70329;45.524;10.194;2023-07-02T04:24:14;22.25;;;15.98;;
49758;SDS011;70329;45.524;10.194;2023-07-02T04:26:39;29.87;;;18.23;;
49758;SDS011;70329;45.524;10.194;2023-07-02T04:29:07;25.77;;;17.55;;
49758;SDS011;70329;45.524;10.194;2023-07-02T04:31:33;25.90;;;17.10;;
49758;SDS011;70329;45.524;10.194;2023-07-02T04:33:58;30.33;;;18.35;;
49758;SDS011;70329;45.524;10.194;2023-07-02T04:36:24;26.20;;;17.00;;
49758;SDS011;70329;45.524;10.194;2023-07-02T04:38:49;26.50;;;18.20;;
49758;SDS011;70329;45.524;10.194;2023-07-02T04:41:17;34.03;;;18.73;;
49758;SDS011;70329;45.524;10.194;2023-07-02T04:43:43;26.25;;;17.60;;
49758;SDS011;70329;45.524;10.194;2023-07-02T04:46:10;24.92;;;17.13;;
49758;SDS011;70329;45.524;10.194;2023-07-02T04:48:37;25.35;;;17.20;;
49758;SDS011;70329;45.524;10.194;2023-07-02T04:51:03;25.23;;;16.02;;
49758;SDS011;70329;45.524;10.194;2023-07-02T04:53:28;23.30;;;16.30;;
49758;SDS011;70329;45.524;10.194;2023-07-02T04:55:53;25.38;;;15.07;;
49758;SDS011;70329;45.524;10.194;2023-07-02T04:58:19;22.92;;;16.58;;
49758;SDS011;70329;45.524;10.194;2023-07-02T05:00:45;26.95;;;16.83;;
49758;SDS011;70329;45.524;10.194;2023-07-02T05:03:10;25.33;;;16.97;;
49758;SDS011;70329;45.524;10.194;2023-07-02T05:05:35;28.00;;;16.77;;
49758;SDS011;70329;45.524;10.194;2023-07-02T05:08:01;22.60;;;16.17;;
49758;SDS011;70329;45.524;10.194;2023-07-02T05:10:26;25.77;;;16.30;;
49758;SDS011;70329;45.524;10.194;2023-07-02T05:12:51;26.57;;;16.53;;
49758;SDS011;70329;45.524;10.194;2023-07-02T05:15:17;25.27;;;16.13;;
49758;SDS011;70329;45.524;10.194;2023-07-02T05:17:42;27.45;;;16.92;;
49758;SDS011;70329;45.524;10.194;2023-07-02T05:20:07;24.40;;;16.47;;
49758;SDS011;70329;45.524;10.194;2023-07-02T05:22:33;23.17;;;15.30;;
49758;SDS011;70329;45.524;10.194;2023-07-02T05:24:59;27.05;;;14.32;;
49758;SDS011;70329;45.524;10.194;2023-07-02T05:27:24;22.95;;;15.05;;
49758;SDS011;70329;45.524;10.194;2023-07-02T05:32:15;19.63;;;13.73;;
49758;SDS011;70329;45.524;10.194;2023-07-02T05:37:05;24.70;;;14.63;;
49758;SDS011;70329;45.524;10.194;2023-07-02T05:41:56;23.17;;;15.88;;
49758;SDS011;70329;45.524;10.194;2023-07-02T05:44:22;25.95;;;16.45;;
49758;SDS011;70329;45.524;10.194;2023-07-02T05:49:13;22.98;;;15.85;;
49758;SDS011;70329;45.524;10.194;2023-07-02T05:51:39;24.77;;;15.68;;
49758;SDS011;70329;45.524;10.194;2023-07-02T05:56:29;22.77;;;15.57;;
49758;SDS011;70329;45.524;10.194;2023-07-02T06:01:20;25.13;;;16.00;;
49758;SDS011;70329;45.524;10.194;2023-07-02T06:06:11;22.00;;;14.82;;
49758;SDS011;70329;45.524;10.194;2023-07-02T06:11:02;23.88;;;16.65;;
49758;SDS011;70329;45.524;10.194;2023-07-02T06:15:52;20.98;;;14.70;;
49758;SDS011;70329;45.524;10.194;2023-07-02T06:20:43;24.67;;;15.83;;
49758;SDS011;70329;45.524;10.194;2023-07-02T06:25:34;23.40;;;15.63;;
49758;SDS011;70329;45.524;10.194;2023-07-02T06:30:25;27.30;;;18.20;;
49758;SDS011;70329;45.524;10.194;2023-07-02T06:32:51;24.75;;;16.83;;
49758;SDS011;70329;45.524;10.194;2023-07-02T06:35:16;25.10;;;17.23;;
49758;SDS011;70329;45.524;10.194;2023-07-02T06:37:42;20.00;;;14.48;;
49758;SDS011;70329;45.524;10.194;2023-07-02T06:40:08;26.02;;;17.17;;
49758;SDS011;70329;45.524;10.194;2023-07-02T06:42:33;26.63;;;17.80;;
49758;SDS011;70329;45.524;10.194;2023-07-02T06:45:02;32.05;;;20.55;;
49758;SDS011;70329;45.524;10.194;2023-07-02T06:47:28;30.98;;;20.65;;
49758;SDS011;70329;45.524;10.194;2023-07-02T06:49:53;31.85;;;21.45;;
49758;SDS011;70329;45.524;10.194;2023-07-02T06:52:19;33.75;;;21.08;;
49758;SDS011;70329;45.524;10.194;2023-07-02T06:54:44;29.75;;;20.67;;
49758;SDS011;70329;45.524;10.194;2023-07-02T06:59:35;33.60;;;20.03;;
49758;SDS011;70329;45.524;10.194;2023-07-02T07:04:27;36.40;;;21.77;;
49758;SDS011;70329;45.524;10.194;2023-07-02T07:06:53;40.22;;;23.25;;
49758;SDS011;70329;45.524;10.194;2023-07-02T07:09:20;39.35;;;23.95;;
49758;SDS011;70329;45.524;10.194;2023-07-02T07:11:46;33.05;;;21.23;;
49758;SDS011;70329;45.524;10.194;2023-07-02T07:16:36;37.13;;;22.20;;
49758;SDS011;70329;45.524;10.194;2023-07-02T07:21:27;35.17;;;23.00;;
49758;SDS011;70329;45.524;10.194;2023-07-02T07:26:18;35.43;;;21.77;;
49758;SDS011;70329;45.524;10.194;2023-07-02T07:31:08;34.93;;;20.87;;
49758;SDS011;70329;45.524;10.194;2023-07-02T07:35:59;39.75;;;23.30;;
49758;SDS011;70329;45.524;10.194;2023-07-02T07:40:51;34.17;;;22.08;;
49758;SDS011;70329;45.524;10.194;2023-07-02T07:45:41;39.00;;;23.77;;
49758;SDS011;70329;45.524;10.194;2023-07-02T07:50:33;37.15;;;22.52;;
49758;SDS011;70329;45.524;10.194;2023-07-02T07:52:59;37.55;;;23.67;;
49758;SDS011;70329;45.524;10.194;2023-07-02T07:57:49;39.55;;;25.05;;
49758;SDS011;70329;45.524;10.194;2023-07-02T08:02:42;41.35;;;25.35;;
49758;SDS011;70329;45.524;10.194;2023-07-02T08:05:12;29.40;;;18.27;;
49758;SDS011;70329;45.524;10.194;2023-07-02T08:10:03;42.35;;;24.30;;
49758;SDS011;70329;45.524;10.194;2023-07-02T08:12:29;42.05;;;25.05;;
49758;SDS011;70329;45.524;10.194;2023-07-02T08:17:20;37.88;;;23.55;;
49758;SDS011;70329;45.524;10.194;2023-07-02T08:22:11;42.50;;;25.90;;
49758;SDS011;70329;45.524;10.194;2023-07-02T08:24:37;40.13;;;26.45;;
49758;SDS011;70329;45.524;10.194;2023-07-02T08:27:03;41.10;;;26.45;;
49758;SDS011;70329;45.524;10.194;2023-07-02T08:29:31;34.97;;;22.40;;
49758;SDS011;70329;45.524;10.194;2023-07-02T08:31:57;34.45;;;22.35;;
49758;SDS011;70329;45.524;10.194;2023-07-02T08:34:23;37.20;;;26.27;;
49758;SDS011;70329;45.524;10.194;2023-07-02T08:36:48;39.78;;;26.75;;
49758;SDS011;70329;45.524;10.194;2023-07-02T08:39:15;38.10;;;24.10;;
49758;SDS011;70329;45.524;10.194;2023-07-02T08:41:44;48.17;;;28.95;;
49758;SDS011;70329;45.524;10.194;2023-07-02T08:44:13;45.13;;;28.95;;
49758;SDS011;70329;45.524;10.194;2023-07-02T08:46:40;42.03;;;26.42;;
49758;SDS011;70329;45.524;10.194;2023-07-02T08:49:07;48.15;;;28.83;;
49758;SDS011;70329;45.524;10.194;2023-07-02T08:51:34;43.15;;;28.00;;
49758;SDS011;70329;45.524;10.194;2023-07-02T08:54:01;42.17;;;27.00;;
49758;SDS011;70329;45.524;10.194;2023-07-02T08:56:28;39.00;;;25.13;;
49758;SDS011;70329;45.524;10.194;2023-07-02T08:58:54;38.00;;;25.20;;
49758;SDS011;70329;45.524;10.194;2023-07-02T09:01:21;34.40;;;23.27;;
49758;SDS011;70329;45.524;10.194;2023-07-02T09:03:48;37.60;;;26.13;;
49758;SDS011;70329;45.524;10.194;2023-07-02T09:06:17;37.40;;;24.73;;
49758;SDS011;70329;45.524;10.194;2023-07-02T09:08:44;36.22;;;25.40;;
49758;SDS011;70329;45.524;10.194;2023-07-02T09:11:15;35.72;;;22.73;;
49758;SDS011;70329;45.524;10.194;2023-07-02T09:13:52;39.22;;;25.67;;
49758;SDS011;70329;45.524;10.194;2023-07-02T09:16:31;36.83;;;22.33;;
49758;SDS011;70329;45.524;10.194;2023-07-02T09:19:05;38.22;;;25.33;;
49758;SDS011;70329;45.524;10.194;2023-07-02T09:21:42;42.13;;;27.35;;
49758;SDS011;70329;45.524;10.194;2023-07-02T09:24:17;39.38;;;27.60;;
49758;SDS011;70329;45.524;10.194;2023-07-02T09:26:48;38.50;;;25.35;;
49758;SDS011;70329;45.524;10.194;2023-07-02T09:29:21;39.17;;;27.40;;
49758;SDS011;70329;45.524;10.194;2023-07-02T09:31:54;36.60;;;23.98;;
49758;SDS011;70329;45.524;10.194;2023-07-02T09:34:31;41.47;;;26.13;;
49758;SDS011;70329;45.524;10.194;2023-07-02T09:36:57;38.00;;;24.57;;
49758;SDS011;70329;45.524;10.194;2023-07-02T09:39:31;35.70;;;23.20;;
49758;SDS011;70329;45.524;10.194;2023-07-02T09:41:58;33.25;;;22.77;;
49758;SDS011;70329;45.524;10.194;2023-07-02T09:44:28;31.45;;;21.45;;
49758;SDS011;70329;45.524;10.194;2023-07-02T09:46:58;37.00;;;24.80;;
49758;SDS011;70329;45.524;10.194;2023-07-02T09:49:27;35.13;;;24.00;;
49758;SDS011;70329;45.524;10.194;2023-07-02T09:52:01;33.90;;;22.15;;
49758;SDS011;70329;45.524;10.194;2023-07-02T09:54:29;35.08;;;23.20;;
49758;SDS011;70329;45.524;10.194;2023-07-02T09:56:55;37.15;;;25.38;;
49758;SDS011;70329;45.524;10.194;2023-07-02T09:59:21;34.30;;;24.33;;
49758;SDS011;70329;45.524;10.194;2023-07-02T10:01:48;39.92;;;25.13;;
49758;SDS011;70329;45.524;10.194;2023-07-02T10:04:14;35.78;;;23.77;;
49758;SDS011;70329;45.524;10.194;2023-07-02T10:06:44;35.67;;;24.17;;
49758;SDS011;70329;45.524;10.194;2023-07-02T10:11:44;32.90;;;23.58;;
49758;SDS011;70329;45.524;10.194;2023-07-02T10:14:10;33.63;;;21.58;;
49758;SDS011;70329;45.524;10.194;2023-07-02T10:16:49;35.35;;;24.00;;
49758;SDS011;70329;45.524;10.194;2023-07-02T10:19:15;41.90;;;27.50;;
49758;SDS011;70329;45.524;10.194;2023-07-02T10:21:40;36.55;;;22.75;;
49758;SDS011;70329;45.524;10.194;2023-07-02T10:24:12;28.67;;;19.52;;
49758;SDS011;70329;45.524;10.194;2023-07-02T10:26:38;37.60;;;25.88;;
49758;SDS011;70329;45.524;10.194;2023-07-02T10:29:03;34.25;;;23.05;;
49758;SDS011;70329;45.524;10.194;2023-07-02T10:31:31;39.88;;;27.58;;
49758;SDS011;70329;45.524;10.194;2023-07-02T10:33:56;37.10;;;26.40;;
49758;SDS011;70329;45.524;10.194;2023-07-02T10:36:22;34.88;;;23.38;;
49758;SDS011;70329;45.524;10.194;2023-07-02T10:38:50;34.42;;;22.77;;
49758;SDS011;70329;45.524;10.194;2023-07-02T10:41:25;31.42;;;21.27;;
49758;SDS011;70329;45.524;10.194;2023-07-02T10:43:52;37.95;;;24.90;;
49758;SDS011;70329;45.524;10.194;2023-07-02T10:46:19;36.08;;;25.35;;
49758;SDS011;70329;45.524;10.194;2023-07-02T10:48:52;39.47;;;23.50;;
49758;SDS011;70329;45.524;10.194;2023-07-02T10:51:18;33.70;;;22.58;;
49758;SDS011;70329;45.524;10.194;2023-07-02T10:53:44;33.22;;;23.02;;
49758;SDS011;70329;45.524;10.194;2023-07-02T10:56:15;26.80;;;19.65;;
49758;SDS011;70329;45.524;10.194;2023-07-02T10:58:44;26.20;;;18.42;;
49758;SDS011;70329;45.524;10.194;2023-07-02T11:01:09;32.17;;;21.05;;
49758;SDS011;70329;45.524;10.194;2023-07-02T11:03:35;31.10;;;22.13;;
49758;SDS011;70329;45.524;10.194;2023-07-02T11:06:00;30.33;;;21.55;;
49758;SDS011;70329;45.524;10.194;2023-07-02T11:08:35;29.65;;;21.20;;
49758;SDS011;70329;45.524;10.194;2023-07-02T11:11:07;29.45;;;20.48;;
49758;SDS011;70329;45.524;10.194;2023-07-02T11:13:33;20.48;;;14.52;;
49758;SDS011;70329;45.524;10.194;2023-07-02T11:15:58;27.38;;;17.58;;
49758;SDS011;70329;45.524;10.194;2023-07-02T11:18:23;27.38;;;18.67;;
49758;SDS011;70329;45.524;10.194;2023-07-02T11:20:50;20.35;;;14.63;;
49758;SDS011;70329;45.524;10.194;2023-07-02T11:23:16;24.77;;;17.65;;
49758;SDS011;70329;45.524;10.194;2023-07-02T11:26:20;22.00;;;14.65;;
49758;SDS011;70329;45.524;10.194;2023-07-02T11:28:47;22.30;;;15.35;;
49758;SDS011;70329;45.524;10.194;2023-07-02T11:31:14;22.13;;;15.47;;
49758;SDS011;70329;45.524;10.194;2023-07-02T11:33:49;22.37;;;16.43;;
49758;SDS011;70329;45.524;10.194;2023-07-02T11:36:19;27.95;;;18.25;;
49758;SDS011;70329;45.524;10.194;2023-07-02T11:38:48;20.20;;;14.20;;
49758;SDS011;70329;45.524;10.194;2023-07-02T11:41:14;24.50;;;18.23;;
49758;SDS011;70329;45.524;10.194;2023-07-02T11:43:39;20.67;;;13.80;;
49758;SDS011;70329;45.524;10.194;2023-07-02T11:46:04;24.27;;;17.13;;
49758;SDS011;70329;45.524;10.194;2023-07-02T11:48:30;25.45;;;18.08;;
49758;SDS011;70329;45.524;10.194;2023-07-02T11:50:55;22.33;;;15.40;;
49758;SDS011;70329;45.524;10.194;2023-07-02T11:53:20;25.33;;;14.35;;
49758;SDS011;70329;45.524;10.194;2023-07-02T11:55:46;20.92;;;14.27;;
49758;SDS011;70329;45.524;10.194;2023-07-02T11:58:11;23.73;;;16.27;;
49758;SDS011;70329;45.524;10.194;2023-07-02T12:00:36;15.38;;;11.43;;
49758;SDS011;70329;45.524;10.194;2023-07-02T12:03:02;21.48;;;15.70;;
49758;SDS011;70329;45.524;10.194;2023-07-02T12:05:27;22.10;;;15.75;;
49758;SDS011;70329;45.524;10.194;2023-07-02T12:07:52;18.38;;;13.88;;
49758;SDS011;70329;45.524;10.194;2023-07-02T12:10:18;19.13;;;14.07;;
49758;SDS011;70329;45.524;10.194;2023-07-02T12:12:43;17.55;;;13.65;;
49758;SDS011;70329;45.524;10.194;2023-07-02T12:15:09;18.65;;;13.15;;
49758;SDS011;70329;45.524;10.194;2023-07-02T12:17:34;17.45;;;12.77;;
49758;SDS011;70329;45.524;10.194;2023-07-02T12:20:00;16.17;;;11.48;;
49758;SDS011;70329;45.524;10.194;2023-07-02T12:22:25;20.20;;;14.48;;
49758;SDS011;70329;45.524;10.194;2023-07-02T12:24:51;17.90;;;13.95;;
49758;SDS011;70329;45.524;10.194;2023-07-02T12:27:18;14.02;;;11.02;;
49758;SDS011;70329;45.524;10.194;2023-07-02T12:29:43;14.02;;;9.93;;
49758;SDS011;70329;45.524;10.194;2023-07-02T12:32:09;18.35;;;12.70;;
49758;SDS011;70329;45.524;10.194;2023-07-02T12:34:34;13.88;;;10.60;;
49758;SDS011;70329;45.524;10.194;2023-07-02T12:37:00;12.73;;;9.32;;
49758;SDS011;70329;45.524;10.194;2023-07-02T12:39:25;11.07;;;8.85;;
49758;SDS011;70329;45.524;10.194;2023-07-02T12:41:51;11.85;;;8.73;;
49758;SDS011;70329;45.524;10.194;2023-07-02T12:44:17;14.65;;;10.10;;
49758;SDS011;70329;45.524;10.194;2023-07-02T12:46:42;15.45;;;11.77;;
49758;SDS011;70329;45.524;10.194;2023-07-02T12:49:08;15.18;;;9.38;;
49758;SDS011;70329;45.524;10.194;2023-07-02T12:51:33;16.30;;;12.95;;
49758;SDS011;70329;45.524;10.194;2023-07-02T12:53:58;19.40;;;13.68;;
49758;SDS011;70329;45.524;10.194;2023-07-02T12:56:24;15.32;;;12.45;;
49758;SDS011;70329;45.524;10.194;2023-07-02T12:58:49;12.15;;;9.85;;
49758;SDS011;70329;45.524;10.194;2023-07-02T13:01:16;14.57;;;10.77;;
49758;SDS011;70329;45.524;10.194;2023-07-02T13:03:48;14.98;;;11.55;;
49758;SDS011;70329;45.524;10.194;2023-07-02T13:06:14;12.75;;;10.15;;
49758;SDS011;70329;45.524;10.194;2023-07-02T13:08:39;18.80;;;12.88;;
49758;SDS011;70329;45.524;10.194;2023-07-02T13:11:05;13.18;;;9.95;;
49758;SDS011;70329;45.524;10.194;2023-07-02T13:13:34;11.15;;;8.43;;
49758;SDS011;70329;45.524;10.194;2023-07-02T13:16:01;15.73;;;10.93;;
49758;SDS011;70329;45.524;10.194;2023-07-02T13:18:27;16.13;;;12.75;;
49758;SDS011;70329;45.524;10.194;2023-07-02T13:20:52;15.00;;;11.30;;
49758;SDS011;70329;45.524;10.194;2023-07-02T13:23:20;17.20;;;11.93;;
49758;SDS011;70329;45.524;10.194;2023-07-02T13:25:45;14.27;;;10.25;;
49758;SDS011;70329;45.524;10.194;2023-07-02T13:28:11;20.88;;;13.57;;
49758;SDS011;70329;45.524;10.194;2023-07-02T13:30:37;20.70;;;13.70;;
49758;SDS011;70329;45.524;10.194;2023-07-02T13:33:02;19.30;;;12.40;;
49758;SDS011;70329;45.524;10.194;2023-07-02T13:35:28;16.67;;;10.85;;
49758;SDS011;70329;45.524;10.194;2023-07-02T13:37:53;18.73;;;13.65;;
49758;SDS011;70329;45.524;10.194;2023-07-02T13:40:19;18.33;;;14.20;;
49758;SDS011;70329;45.524;10.194;2023-07-02T13:42:45;17.20;;;13.25;;
49758;SDS011;70329;45.524;10.194;2023-07-02T13:45:10;18.05;;;13.15;;
49758;SDS011;70329;45.524;10.194;2023-07-02T13:47:36;17.20;;;12.43;;
49758;SDS011;70329;45.524;10.194;2023-07-02T13:50:02;16.05;;;12.25;;
49758;SDS011;70329;45.524;10.194;2023-07-02T13:52:31;14.18;;;9.90;;
49758;SDS011;70329;45.524;10.194;2023-07-02T13:54:57;25.10;;;17.70;;
49758;SDS011;70329;45.524;10.194;2023-07-02T13:57:25;16.00;;;11.32;;
49758;SDS011;70329;45.524;10.194;2023-07-02T13:59:50;12.15;;;9.25;;
49758;SDS011;70329;45.524;10.194;2023-07-02T14:02:16;38.95;;;29.73;;
49758;SDS011;70329;45.524;10.194;2023-07-02T14:04:41;21.17;;;16.98;;
49758;SDS011;70329;45.524;10.194;2023-07-02T14:07:09;24.63;;;15.23;;
49758;SDS011;70329;45.524;10.194;2023-07-02T14:09:35;15.18;;;11.15;;
49758;SDS011;70329;45.524;10.194;2023-07-02T14:12:03;60.83;;;44.25;;
49758;SDS011;70329;45.524;10.194;2023-07-02T14:14:29;14.73;;;11.18;;
49758;SDS011;70329;45.524;10.194;2023-07-02T14:16:54;15.77;;;10.95;;
49758;SDS011;70329;45.524;10.194;2023-07-02T14:19:19;14.18;;;10.30;;
49758;SDS011;70329;45.524;10.194;2023-07-02T14:21:48;10.68;;;8.65;;
49758;SDS011;70329;45.524;10.194;2023-07-02T14:24:14;14.55;;;10.95;;
49758;SDS011;70329;45.524;10.194;2023-07-02T14:26:39;13.52;;;11.73;;
49758;SDS011;70329;45.524;10.194;2023-07-02T14:29:05;14.52;;;10.85;;
49758;SDS011;70329;45.524;10.194;2023-07-02T14:31:30;18.75;;;12.05;;
49758;SDS011;70329;45.524;10.194;2023-07-02T14:33:56;25.90;;;11.82;;
49758;SDS011;70329;45.524;10.194;2023-07-02T14:36:21;18.83;;;14.57;;
49758;SDS011;70329;45.524;10.194;2023-07-02T14:38:46;19.02;;;14.70;;
49758;SDS011;70329;45.524;10.194;2023-07-02T14:41:12;20.45;;;15.43;;
49758;SDS011;70329;45.524;10.194;2023-07-02T14:43:37;19.00;;;14.48;;
49758;SDS011;70329;45.524;10.194;2023-07-02T14:46:03;18.48;;;12.57;;
49758;SDS011;70329;45.524;10.194;2023-07-02T14:48:29;19.48;;;13.05;;
49758;SDS011;70329;45.524;10.194;2023-07-02T14:50:58;17.25;;;13.25;;
49758;SDS011;70329;45.524;10.194;2023-07-02T14:53:25;20.05;;;15.55;;
49758;SDS011;70329;45.524;10.194;2023-07-02T14:55:53;17.25;;;13.38;;
49758;SDS011;70329;45.524;10.194;2023-07-02T14:58:20;13.65;;;9.68;;
49758;SDS011;70329;45.524;10.194;2023-07-02T15:00:48;15.85;;;11.43;;
49758;SDS011;70329;45.524;10.194;2023-07-02T15:03:15;10.75;;;8.82;;
49758;SDS011;70329;45.524;10.194;2023-07-02T15:05:41;13.13;;;9.38;;
49758;SDS011;70329;45.524;10.194;2023-07-02T15:08:09;14.00;;;10.55;;
49758;SDS011;70329;45.524;10.194;2023-07-02T15:10:40;12.07;;;8.38;;
49758;SDS011;70329;45.524;10.194;2023-07-02T15:13:06;10.70;;;8.50;;
49758;SDS011;70329;45.524;10.194;2023-07-02T15:15:32;12.82;;;10.57;;
49758;SDS011;70329;45.524;10.194;2023-07-02T15:17:58;13.18;;;10.07;;
49758;SDS011;70329;45.524;10.194;2023-07-02T15:20:24;9.35;;;7.85;;
49758;SDS011;70329;45.524;10.194;2023-07-02T15:22:50;13.88;;;9.85;;
49758;SDS011;70329;45.524;10.194;2023-07-02T15:25:15;18.48;;;10.93;;
49758;SDS011;70329;45.524;10.194;2023-07-02T15:27:40;17.27;;;9.80;;